sensor_id;sensor_type;location;lat;lon;timestamp;pressure;altitude;pressure_sealevel;temperature;humidity
50550;BME280;36505;52.512;13.460;2023-01-29T00:00:50;102206.91;;;0.53;69.14
50550;BME280;36505;52.512;13.460;2023-01-29T00:03:15;102200.69;;;0.53;68.86
50550;BME280;36505;52.512;13.460;2023-01-29T00:05:41;102199.69;;;0.54;68.79
50550;BME280;36505;52.512;13.460;2023-01-29T00:08:06;102202.78;;;0.49;69.09
50550;BME280;36505;52.512;13.460;2023-01-29T00:10:31;102204.81;;;0.47;69.40
50550;BME280;36505;52.512;13.460;2023-01-29T00:12:57;102205.06;;;0.54;69.57
50550;BME280;36505;52.512;13.460;2023-01-29T00:15:22;102191.03;;;0.50;69.56
50550;BME280;36505;52.512;13.460;2023-01-29T00:17:48;102200.38;;;0.56;69.57
50550;BME280;36505;52.512;13.460;2023-01-29T00:20:13;102196.69;;;0.57;69.30
50550;BME280;36505;52.512;13.460;2023-01-29T00:22:39;102204.91;;;0.55;69.47
50550;BME280;36505;52.512;13.460;2023-01-29T00:25:05;102199.97;;;0.51;69.32
50550;BME280;36505;52.512;13.460;2023-01-29T00:27:30;102203.78;;;0.58;69.26
50550;BME280;36505;52.512;13.460;2023-01-29T00:29:56;102199.38;;;0.57;69.13
50550;BME280;36505;52.512;13.460;2023-01-29T00:32:37;102195.28;;;0.53;69.10
50550;BME280;36505;52.512;13.460;2023-01-29T00:35:03;102201.38;;;0.55;69.30
50550;BME280;36505;52.512;13.460;2023-01-29T00:37:29;102194.56;;;0.51;69.44
50550;BME280;36505;52.512;13.460;2023-01-29T00:39:55;102175.84;;;0.49;69.39
50550;BME280;36505;52.512;13.460;2023-01-29T00:42:20;102176.28;;;0.54;69.82
50550;BME280;36505;52.512;13.460;2023-01-29T00:45:05;102172.56;;;0.55;69.79
50550;BME280;36505;52.512;13.460;2023-01-29T00:47:30;102169.72;;;0.57;69.73
50550;BME280;36505;52.512;13.460;2023-01-29T00:50:04;102161.38;;;0.60;69.81
50550;BME280;36505;52.512;13.460;2023-01-29T00:52:30;102161.22;;;0.61;69.67
50550;BME280;36505;52.512;13.460;2023-01-29T00:54:57;102155.13;;;0.59;69.88
50550;BME280;36505;52.512;13.460;2023-01-29T00:57:25;102164.19;;;0.68;69.83
50550;BME280;36505;52.512;13.460;2023-01-29T00:59:51;102162.75;;;0.73;69.71
50550;BME280;36505;52.512;13.460;2023-01-29T01:02:16;102161.59;;;0.76;69.64
50550;BME280;36505;52.512;13.460;2023-01-29T01:05:00;102160.91;;;0.74;69.59
50550;BME280;36505;52.512;13.460;2023-01-29T01:07:30;102169.00;;;0.74;69.43
50550;BME280;36505;52.512;13.460;2023-01-29T01:09:56;102165.72;;;0.70;69.64
50550;BME280;36505;52.512;13.460;2023-01-29T01:12:40;102170.28;;;0.70;70.10
50550;BME280;36505;52.512;13.460;2023-01-29T01:15:05;102165.44;;;0.73;70.21
50550;BME280;36505;52.512;13.460;2023-01-29T01:17:31;102166.44;;;0.72;70.11
50550;BME280;36505;52.512;13.460;2023-01-29T01:19:56;102164.28;;;0.76;70.03
50550;BME280;36505;52.512;13.460;2023-01-29T01:22:21;102152.25;;;0.70;70.21
50550;BME280;36505;52.512;13.460;2023-01-29T01:24:47;102160.47;;;0.78;70.24
50550;BME280;36505;52.512;13.460;2023-01-29T01:27:13;102159.75;;;0.76;70.10
50550;BME280;36505;52.512;13.460;2023-01-29T01:29:38;102173.94;;;0.78;70.25
50550;BME280;36505;52.512;13.460;2023-01-29T01:32:05;102163.31;;;0.77;70.25
50550;BME280;36505;52.512;13.460;2023-01-29T01:34:30;102163.69;;;0.82;70.52
50550;BME280;36505;52.512;13.460;2023-01-29T01:36:56;102159.47;;;0.79;70.34
50550;BME280;36505;52.512;13.460;2023-01-29T01:39:22;102174.22;;;0.85;70.98
50550;BME280;36505;52.512;13.460;2023-01-29T01:41:48;102167.69;;;0.88;70.96
50550;BME280;36505;52.512;13.460;2023-01-29T01:47:15;102174.06;;;0.87;70.83
50550;BME280;36505;52.512;13.460;2023-01-29T01:49:42;102169.81;;;0.84;71.21
50550;BME280;36505;52.512;13.460;2023-01-29T01:52:08;102165.41;;;0.83;71.31
50550;BME280;36505;52.512;13.460;2023-01-29T01:54:34;102160.72;;;0.85;71.44
50550;BME280;36505;52.512;13.460;2023-01-29T01:57:04;102171.66;;;0.84;71.33
50550;BME280;36505;52.512;13.460;2023-01-29T01:59:42;102165.97;;;0.87;71.88
50550;BME280;36505;52.512;13.460;2023-01-29T02:02:11;102164.00;;;0.89;71.24
50550;BME280;36505;52.512;13.460;2023-01-29T02:04:56;102163.16;;;0.88;71.60
50550;BME280;36505;52.512;13.460;2023-01-29T02:07:46;102148.63;;;0.89;71.55
50550;BME280;36505;52.512;13.460;2023-01-29T02:10:37;102150.66;;;0.87;71.87
50550;BME280;36505;52.512;13.460;2023-01-29T02:13:05;102136.75;;;0.82;71.88
50550;BME280;36505;52.512;13.460;2023-01-29T02:15:31;102147.97;;;0.87;72.00
50550;BME280;36505;52.512;13.460;2023-01-29T02:17:57;102144.94;;;0.90;72.09
50550;BME280;36505;52.512;13.460;2023-01-29T02:30:28;102109.38;;;0.77;72.09
50550;BME280;36505;52.512;13.460;2023-01-29T02:33:00;102130.47;;;0.91;71.88
50550;BME280;36505;52.512;13.460;2023-01-29T02:40:41;102141.66;;;0.96;71.98
50550;BME280;36505;52.512;13.460;2023-01-29T02:43:21;102136.84;;;1.00;71.67
50550;BME280;36505;52.512;13.460;2023-01-29T02:45:59;102141.22;;;1.01;71.80
50550;BME280;36505;52.512;13.460;2023-01-29T02:48:32;102135.28;;;0.97;71.57
50550;BME280;36505;52.512;13.460;2023-01-29T02:51:05;102130.34;;;0.93;71.72
50550;BME280;36505;52.512;13.460;2023-01-29T02:53:38;102135.00;;;1.00;71.63
50550;BME280;36505;52.512;13.460;2023-01-29T02:56:23;102114.84;;;0.95;71.53
50550;BME280;36505;52.512;13.460;2023-01-29T02:58:58;102120.78;;;0.98;71.75
50550;BME280;36505;52.512;13.460;2023-01-29T03:01:39;102117.09;;;0.99;71.47
50550;BME280;36505;52.512;13.460;2023-01-29T03:04:10;102121.66;;;0.99;71.53
50550;BME280;36505;52.512;13.460;2023-01-29T03:06:42;102093.31;;;0.85;71.80
50550;BME280;36505;52.512;13.460;2023-01-29T03:09:15;102115.72;;;0.95;71.81
50550;BME280;36505;52.512;13.460;2023-01-29T03:11:53;102120.25;;;0.95;72.04
50550;BME280;36505;52.512;13.460;2023-01-29T03:14:29;102114.00;;;0.94;72.22
50550;BME280;36505;52.512;13.460;2023-01-29T03:17:18;102108.19;;;0.89;72.01
50550;BME280;36505;52.512;13.460;2023-01-29T03:19:47;102100.28;;;0.88;72.34
50550;BME280;36505;52.512;13.460;2023-01-29T03:22:14;102106.06;;;0.93;72.65
50550;BME280;36505;52.512;13.460;2023-01-29T03:24:45;102104.91;;;0.95;72.28
50550;BME280;36505;52.512;13.460;2023-01-29T03:27:36;102100.91;;;0.99;72.67
50550;BME280;36505;52.512;13.460;2023-01-29T03:30:24;102104.31;;;1.01;72.72
50550;BME280;36505;52.512;13.460;2023-01-29T03:33:10;102100.63;;;1.02;72.96
50550;BME280;36505;52.512;13.460;2023-01-29T03:35:40;102095.38;;;1.01;72.96
50550;BME280;36505;52.512;13.460;2023-01-29T03:38:10;102085.59;;;1.00;72.97
50550;BME280;36505;52.512;13.460;2023-01-29T03:40:45;102086.44;;;1.00;73.14
50550;BME280;36505;52.512;13.460;2023-01-29T03:43:33;102083.59;;;1.02;73.41
50550;BME280;36505;52.512;13.460;2023-01-29T03:46:04;102080.59;;;1.05;73.63
50550;BME280;36505;52.512;13.460;2023-01-29T03:51:21;102073.81;;;1.01;73.21
50550;BME280;36505;52.512;13.460;2023-01-29T03:53:53;102060.47;;;0.99;73.40
50550;BME280;36505;52.512;13.460;2023-01-29T03:56:39;102053.75;;;1.03;73.29
50550;BME280;36505;52.512;13.460;2023-01-29T03:59:32;102058.16;;;1.04;73.47
50550;BME280;36505;52.512;13.460;2023-01-29T04:02:14;102044.38;;;1.07;73.24
50550;BME280;36505;52.512;13.460;2023-01-29T04:04:45;102038.84;;;1.09;73.57
50550;BME280;36505;52.512;13.460;2023-01-29T04:07:14;102034.97;;;1.11;73.41
50550;BME280;36505;52.512;13.460;2023-01-29T04:09:46;102008.06;;;1.02;73.20
50550;BME280;36505;52.512;13.460;2023-01-29T04:12:18;102018.06;;;1.09;73.55
50550;BME280;36505;52.512;13.460;2023-01-29T04:14:46;102005.75;;;1.07;73.23
50550;BME280;36505;52.512;13.460;2023-01-29T04:17:26;101992.28;;;1.07;73.15
50550;BME280;36505;52.512;13.460;2023-01-29T04:19:58;101994.34;;;1.13;73.78
50550;BME280;36505;52.512;13.460;2023-01-29T04:22:35;101989.44;;;1.08;73.54
50550;BME280;36505;52.512;13.460;2023-01-29T04:25:07;102002.44;;;1.13;73.73
50550;BME280;36505;52.512;13.460;2023-01-29T04:28:21;102012.78;;;1.17;73.74
50550;BME280;36505;52.512;13.460;2023-01-29T04:30:56;102002.97;;;1.16;73.82
50550;BME280;36505;52.512;13.460;2023-01-29T04:36:37;101992.38;;;1.15;73.92
50550;BME280;36505;52.512;13.460;2023-01-29T04:39:29;101964.06;;;1.01;74.12
50550;BME280;36505;52.512;13.460;2023-01-29T04:44:45;101985.56;;;1.11;74.94
50550;BME280;36505;52.512;13.460;2023-01-29T04:47:33;102001.31;;;1.15;75.32
50550;BME280;36505;52.512;13.460;2023-01-29T04:50:14;101999.75;;;1.13;75.22
50550;BME280;36505;52.512;13.460;2023-01-29T04:58:08;101987.03;;;1.05;75.75
50550;BME280;36505;52.512;13.460;2023-01-29T05:00:47;101996.34;;;1.11;75.93
50550;BME280;36505;52.512;13.460;2023-01-29T05:03:15;101981.78;;;1.04;76.49
50550;BME280;36505;52.512;13.460;2023-01-29T05:05:44;102005.00;;;1.14;76.77
50550;BME280;36505;52.512;13.460;2023-01-29T05:08:13;101997.06;;;1.13;76.90
50550;BME280;36505;52.512;13.460;2023-01-29T05:10:40;102002.91;;;1.08;77.16
50550;BME280;36505;52.512;13.460;2023-01-29T05:13:10;102004.91;;;1.06;77.40
50550;BME280;36505;52.512;13.460;2023-01-29T05:16:01;102002.59;;;1.11;77.41
50550;BME280;36505;52.512;13.460;2023-01-29T05:18:28;101995.69;;;1.09;78.09
50550;BME280;36505;52.512;13.460;2023-01-29T05:20:56;101994.59;;;1.02;78.12
50550;BME280;36505;52.512;13.460;2023-01-29T05:23:24;102010.84;;;1.10;78.37
50550;BME280;36505;52.512;13.460;2023-01-29T05:25:50;102010.84;;;1.10;79.23
50550;BME280;36505;52.512;13.460;2023-01-29T05:28:16;102009.97;;;1.09;79.32
50550;BME280;36505;52.512;13.460;2023-01-29T05:30:47;102006.63;;;1.07;80.31
50550;BME280;36505;52.512;13.460;2023-01-29T05:33:18;101998.81;;;1.04;80.33
50550;BME280;36505;52.512;13.460;2023-01-29T05:35:44;102002.34;;;1.05;81.23
50550;BME280;36505;52.512;13.460;2023-01-29T05:38:10;101977.31;;;0.95;81.50
50550;BME280;36505;52.512;13.460;2023-01-29T05:40:35;102015.56;;;1.08;81.62
50550;BME280;36505;52.512;13.460;2023-01-29T05:43:01;102004.53;;;1.01;82.09
50550;BME280;36505;52.512;13.460;2023-01-29T05:45:26;101993.03;;;0.99;82.07
50550;BME280;36505;52.512;13.460;2023-01-29T05:47:59;102003.22;;;1.05;81.92
50550;BME280;36505;52.512;13.460;2023-01-29T05:50:25;102004.75;;;1.08;82.61
50550;BME280;36505;52.512;13.460;2023-01-29T05:53:00;101997.56;;;0.99;82.77
50550;BME280;36505;52.512;13.460;2023-01-29T05:55:27;102002.69;;;1.02;82.65
50550;BME280;36505;52.512;13.460;2023-01-29T05:57:56;102019.25;;;1.07;82.19
50550;BME280;36505;52.512;13.460;2023-01-29T06:00:22;102009.59;;;1.04;82.35
50550;BME280;36505;52.512;13.460;2023-01-29T06:02:48;102017.69;;;1.04;82.61
50550;BME280;36505;52.512;13.460;2023-01-29T06:05:13;101999.41;;;0.98;82.44
50550;BME280;36505;52.512;13.460;2023-01-29T06:07:39;102006.22;;;1.02;82.66
50550;BME280;36505;52.512;13.460;2023-01-29T06:10:18;102026.50;;;1.06;82.29
50550;BME280;36505;52.512;13.460;2023-01-29T06:12:44;102022.78;;;1.07;82.39
50550;BME280;36505;52.512;13.460;2023-01-29T06:15:11;102034.81;;;1.13;82.21
50550;BME280;36505;52.512;13.460;2023-01-29T06:17:37;102027.72;;;1.12;82.43
50550;BME280;36505;52.512;13.460;2023-01-29T06:20:03;102033.69;;;1.15;82.38
50550;BME280;36505;52.512;13.460;2023-01-29T06:22:28;102017.44;;;0.98;82.66
50550;BME280;36505;52.512;13.460;2023-01-29T06:24:54;102013.59;;;1.00;82.98
50550;BME280;36505;52.512;13.460;2023-01-29T06:27:19;102021.47;;;1.11;82.71
50550;BME280;36505;52.512;13.460;2023-01-29T06:29:45;102006.91;;;1.04;82.50
50550;BME280;36505;52.512;13.460;2023-01-29T06:32:10;101995.72;;;0.99;82.41
50550;BME280;36505;52.512;13.460;2023-01-29T06:34:35;102021.03;;;1.16;82.90
50550;BME280;36505;52.512;13.460;2023-01-29T06:37:01;102008.59;;;1.05;83.06
50550;BME280;36505;52.512;13.460;2023-01-29T06:39:26;102014.22;;;1.12;82.91
50550;BME280;36505;52.512;13.460;2023-01-29T06:41:51;102011.91;;;1.17;83.00
50550;BME280;36505;52.512;13.460;2023-01-29T06:44:17;102019.72;;;1.20;83.03
50550;BME280;36505;52.512;13.460;2023-01-29T06:46:42;102011.06;;;1.16;83.50
50550;BME280;36505;52.512;13.460;2023-01-29T06:49:08;102021.56;;;1.19;83.13
50550;BME280;36505;52.512;13.460;2023-01-29T06:51:33;102008.69;;;1.13;83.23
50550;BME280;36505;52.512;13.460;2023-01-29T06:53:58;102024.97;;;1.22;83.31
50550;BME280;36505;52.512;13.460;2023-01-29T06:56:24;102020.56;;;1.21;83.44
50550;BME280;36505;52.512;13.460;2023-01-29T06:58:49;102026.34;;;1.26;83.78
50550;BME280;36505;52.512;13.460;2023-01-29T07:01:15;102028.91;;;1.27;83.63
50550;BME280;36505;52.512;13.460;2023-01-29T07:03:40;102021.44;;;1.21;83.96
50550;BME280;36505;52.512;13.460;2023-01-29T07:06:07;102013.09;;;1.14;83.34
50550;BME280;36505;52.512;13.460;2023-01-29T07:08:37;102018.59;;;1.23;83.77
50550;BME280;36505;52.512;13.460;2023-01-29T07:11:03;102021.28;;;1.23;84.08
50550;BME280;36505;52.512;13.460;2023-01-29T07:13:29;102019.25;;;1.25;84.00
50550;BME280;36505;52.512;13.460;2023-01-29T07:15:58;102024.38;;;1.28;83.89
50550;BME280;36505;52.512;13.460;2023-01-29T07:18:24;102013.56;;;1.28;84.17
50550;BME280;36505;52.512;13.460;2023-01-29T07:20:50;102007.84;;;1.31;83.98
50550;BME280;36505;52.512;13.460;2023-01-29T07:23:16;102009.88;;;1.29;83.93
50550;BME280;36505;52.512;13.460;2023-01-29T07:25:42;101999.69;;;1.23;84.02
50550;BME280;36505;52.512;13.460;2023-01-29T07:28:08;101995.44;;;1.20;84.38
50550;BME280;36505;52.512;13.460;2023-01-29T07:30:33;102027.59;;;1.31;84.50
50550;BME280;36505;52.512;13.460;2023-01-29T07:33:07;102024.59;;;1.34;84.25
50550;BME280;36505;52.512;13.460;2023-01-29T07:35:37;102022.13;;;1.41;84.37
50550;BME280;36505;52.512;13.460;2023-01-29T07:38:03;102027.53;;;1.41;84.17
50550;BME280;36505;52.512;13.460;2023-01-29T07:40:28;101994.97;;;1.25;83.99
50550;BME280;36505;52.512;13.460;2023-01-29T07:43:01;102007.22;;;1.37;83.65
50550;BME280;36505;52.512;13.460;2023-01-29T07:45:32;101989.81;;;1.31;84.34
50550;BME280;36505;52.512;13.460;2023-01-29T07:47:57;102010.50;;;1.40;84.38
50550;BME280;36505;52.512;13.460;2023-01-29T07:50:24;102006.47;;;1.44;83.91
50550;BME280;36505;52.512;13.460;2023-01-29T07:52:50;101992.97;;;1.44;83.98
50550;BME280;36505;52.512;13.460;2023-01-29T07:55:18;101972.06;;;1.46;84.02
50550;BME280;36505;52.512;13.460;2023-01-29T07:57:44;101972.06;;;1.46;83.92
50550;BME280;36505;52.512;13.460;2023-01-29T08:00:10;101987.78;;;1.51;84.03
50550;BME280;36505;52.512;13.460;2023-01-29T08:02:36;101971.84;;;1.40;84.55
50550;BME280;36505;52.512;13.460;2023-01-29T08:05:01;102000.16;;;1.53;85.17
50550;BME280;36505;52.512;13.460;2023-01-29T08:07:27;101981.47;;;1.60;84.50
50550;BME280;36505;52.512;13.460;2023-01-29T08:09:52;101950.84;;;1.51;84.97
50550;BME280;36505;52.512;13.460;2023-01-29T08:12:18;101973.53;;;1.58;85.21
50550;BME280;36505;52.512;13.460;2023-01-29T08:14:43;101972.69;;;1.58;84.88
50550;BME280;36505;52.512;13.460;2023-01-29T08:17:10;101974.38;;;1.59;85.43
50550;BME280;36505;52.512;13.460;2023-01-29T08:19:36;101988.56;;;1.61;85.32
50550;BME280;36505;52.512;13.460;2023-01-29T08:22:02;101976.00;;;1.52;85.62
50550;BME280;36505;52.512;13.460;2023-01-29T08:24:28;101976.38;;;1.57;85.58
50550;BME280;36505;52.512;13.460;2023-01-29T08:26:53;101964.44;;;1.59;85.87
50550;BME280;36505;52.512;13.460;2023-01-29T08:29:18;101958.19;;;1.59;85.63
50550;BME280;36505;52.512;13.460;2023-01-29T08:31:44;101984.25;;;1.68;85.51
50550;BME280;36505;52.512;13.460;2023-01-29T08:34:09;101957.88;;;1.62;85.45
50550;BME280;36505;52.512;13.460;2023-01-29T08:36:35;101977.00;;;1.69;85.41
50550;BME280;36505;52.512;13.460;2023-01-29T08:39:00;101971.44;;;1.70;85.55
50550;BME280;36505;52.512;13.460;2023-01-29T08:41:25;101967.50;;;1.65;85.60
50550;BME280;36505;52.512;13.460;2023-01-29T08:43:51;101972.28;;;1.71;86.04
50550;BME280;36505;52.512;13.460;2023-01-29T08:46:16;101974.81;;;1.72;86.07
50550;BME280;36505;52.512;13.460;2023-01-29T08:48:42;101968.75;;;1.70;86.04
50550;BME280;36505;52.512;13.460;2023-01-29T08:51:07;101955.56;;;1.67;85.82
50550;BME280;36505;52.512;13.460;2023-01-29T08:53:33;101971.81;;;1.75;85.90
50550;BME280;36505;52.512;13.460;2023-01-29T08:55:58;101949.63;;;1.64;86.02
50550;BME280;36505;52.512;13.460;2023-01-29T08:58:23;101971.69;;;1.85;85.70
50550;BME280;36505;52.512;13.460;2023-01-29T09:00:49;101942.56;;;1.71;85.87
50550;BME280;36505;52.512;13.460;2023-01-29T09:03:14;101958.16;;;1.77;85.52
50550;BME280;36505;52.512;13.460;2023-01-29T09:05:40;101956.69;;;1.82;85.69
50550;BME280;36505;52.512;13.460;2023-01-29T09:08:07;101968.00;;;1.86;85.73
50550;BME280;36505;52.512;13.460;2023-01-29T09:10:33;101952.28;;;1.81;85.76
50550;BME280;36505;52.512;13.460;2023-01-29T09:12:59;101948.25;;;1.85;86.42
50550;BME280;36505;52.512;13.460;2023-01-29T09:15:24;101967.06;;;1.95;86.50
50550;BME280;36505;52.512;13.460;2023-01-29T09:17:50;101956.75;;;1.90;85.80
50550;BME280;36505;52.512;13.460;2023-01-29T09:20:17;101964.22;;;1.96;85.57
50550;BME280;36505;52.512;13.460;2023-01-29T09:22:42;101940.00;;;1.87;85.77
50550;BME280;36505;52.512;13.460;2023-01-29T09:25:08;101947.81;;;1.98;85.55
50550;BME280;36505;52.512;13.460;2023-01-29T09:27:34;101946.78;;;1.91;85.38
50550;BME280;36505;52.512;13.460;2023-01-29T09:30:00;101964.78;;;2.08;85.16
50550;BME280;36505;52.512;13.460;2023-01-29T09:32:25;101959.88;;;2.12;85.39
50550;BME280;36505;52.512;13.460;2023-01-29T09:34:50;101942.47;;;2.06;85.27
50550;BME280;36505;52.512;13.460;2023-01-29T09:37:16;101941.31;;;2.09;85.22
50550;BME280;36505;52.512;13.460;2023-01-29T09:39:42;101951.31;;;2.16;84.88
50550;BME280;36505;52.512;13.460;2023-01-29T09:45:00;101934.47;;;2.22;84.28
50550;BME280;36505;52.512;13.460;2023-01-29T09:47:31;101934.66;;;2.29;84.13
50550;BME280;36505;52.512;13.460;2023-01-29T09:55:11;101910.34;;;2.29;83.03
50550;BME280;36505;52.512;13.460;2023-01-29T09:57:52;101910.19;;;2.30;82.82
50550;BME280;36505;52.512;13.460;2023-01-29T10:05:45;101915.47;;;2.48;82.71
50550;BME280;36505;52.512;13.460;2023-01-29T10:14:17;101901.03;;;2.65;81.77
50550;BME280;36505;52.512;13.460;2023-01-29T10:19:56;101881.44;;;2.71;81.89
50550;BME280;36505;52.512;13.460;2023-01-29T10:25:03;101877.03;;;2.70;81.68
50550;BME280;36505;52.512;13.460;2023-01-29T10:27:35;101906.81;;;2.87;81.42
50550;BME280;36505;52.512;13.460;2023-01-29T10:30:06;101903.78;;;2.90;80.94
50550;BME280;36505;52.512;13.460;2023-01-29T10:32:34;101901.09;;;2.98;80.72
50550;BME280;36505;52.512;13.460;2023-01-29T10:35:14;101909.69;;;3.01;79.97
50550;BME280;36505;52.512;13.460;2023-01-29T10:37:42;101905.16;;;3.02;80.34
50550;BME280;36505;52.512;13.460;2023-01-29T10:42:52;101886.75;;;3.13;79.26
50550;BME280;36505;52.512;13.460;2023-01-29T10:45:41;101884.03;;;3.13;79.63
50550;BME280;36505;52.512;13.460;2023-01-29T10:54:13;101870.00;;;3.26;78.84
50550;BME280;36505;52.512;13.460;2023-01-29T10:59:24;101875.91;;;3.46;78.40
50550;BME280;36505;52.512;13.460;2023-01-29T11:01:57;101836.13;;;3.46;78.08
50550;BME280;36505;52.512;13.460;2023-01-29T11:04:25;101847.13;;;3.53;77.79
50550;BME280;36505;52.512;13.460;2023-01-29T11:06:51;101837.94;;;3.62;77.48
50550;BME280;36505;52.512;13.460;2023-01-29T11:09:34;101838.78;;;3.71;77.57
50550;BME280;36505;52.512;13.460;2023-01-29T11:12:20;101836.38;;;3.84;76.82
50550;BME280;36505;52.512;13.460;2023-01-29T11:14:54;101833.31;;;3.95;76.32
50550;BME280;36505;52.512;13.460;2023-01-29T11:17:23;101822.94;;;3.98;75.81
50550;BME280;36505;52.512;13.460;2023-01-29T11:19:50;101825.50;;;4.00;75.90
50550;BME280;36505;52.512;13.460;2023-01-29T11:22:17;101819.84;;;4.10;76.12
50550;BME280;36505;52.512;13.460;2023-01-29T11:24:44;101823.38;;;4.18;75.70
50550;BME280;36505;52.512;13.460;2023-01-29T11:27:48;101819.09;;;4.24;75.31
50550;BME280;36505;52.512;13.460;2023-01-29T11:32:49;101811.59;;;4.34;74.84
50550;BME280;36505;52.512;13.460;2023-01-29T11:37:43;101791.78;;;4.33;73.53
50550;BME280;36505;52.512;13.460;2023-01-29T11:42:44;101789.03;;;4.42;73.04
50550;BME280;36505;52.512;13.460;2023-01-29T11:47:53;101787.94;;;4.51;73.01
50550;BME280;36505;52.512;13.460;2023-01-29T11:50:22;101761.41;;;4.38;72.95
50550;BME280;36505;52.512;13.460;2023-01-29T11:52:48;101771.09;;;4.32;72.34
50550;BME280;36505;52.512;13.460;2023-01-29T11:55:17;101777.09;;;4.51;72.65
50550;BME280;36505;52.512;13.460;2023-01-29T11:58:10;101748.56;;;4.32;72.60
50550;BME280;36505;52.512;13.460;2023-01-29T12:00:39;101781.44;;;4.60;72.61
50550;BME280;36505;52.512;13.460;2023-01-29T12:03:15;101775.00;;;4.61;72.10
50550;BME280;36505;52.512;13.460;2023-01-29T12:06:07;101744.25;;;4.46;71.51
50550;BME280;36505;52.512;13.460;2023-01-29T12:08:36;101762.44;;;4.60;70.46
50550;BME280;36505;52.512;13.460;2023-01-29T12:11:23;101735.13;;;4.38;71.22
50550;BME280;36505;52.512;13.460;2023-01-29T12:14:03;101723.66;;;4.36;71.06
50550;BME280;36505;52.512;13.460;2023-01-29T12:19:08;101735.75;;;4.49;70.93
50550;BME280;36505;52.512;13.460;2023-01-29T12:21:43;101720.84;;;4.45;70.85
50550;BME280;36505;52.512;13.460;2023-01-29T12:24:34;101743.00;;;4.56;71.20
50550;BME280;36505;52.512;13.460;2023-01-29T12:29:54;101730.41;;;4.63;71.31
50550;BME280;36505;52.512;13.460;2023-01-29T12:35:10;101724.66;;;4.58;70.85
50550;BME280;36505;52.512;13.460;2023-01-29T12:40:52;101693.38;;;4.48;71.36
50550;BME280;36505;52.512;13.460;2023-01-29T12:45:53;101698.25;;;4.52;70.47
50550;BME280;36505;52.512;13.460;2023-01-29T12:48:29;101692.47;;;4.32;71.14
50550;BME280;36505;52.512;13.460;2023-01-29T12:51:03;101700.78;;;4.31;70.89
50550;BME280;36505;52.512;13.460;2023-01-29T12:54:01;101709.47;;;4.26;71.63
50550;BME280;36505;52.512;13.460;2023-01-29T12:56:32;101714.09;;;4.18;71.64
50550;BME280;36505;52.512;13.460;2023-01-29T12:59:04;101712.28;;;4.10;72.06
50550;BME280;36505;52.512;13.460;2023-01-29T13:01:43;101698.47;;;3.97;71.54
50550;BME280;36505;52.512;13.460;2023-01-29T13:04:14;101704.41;;;3.92;71.63
50550;BME280;36505;52.512;13.460;2023-01-29T13:06:55;101716.09;;;3.93;72.68
50550;BME280;36505;52.512;13.460;2023-01-29T13:09:26;101698.53;;;3.89;72.54
50550;BME280;36505;52.512;13.460;2023-01-29T13:12:02;101686.38;;;3.77;72.19
50550;BME280;36505;52.512;13.460;2023-01-29T13:14:41;101704.28;;;3.86;72.83
50550;BME280;36505;52.512;13.460;2023-01-29T13:17:14;101693.78;;;3.83;72.85
50550;BME280;36505;52.512;13.460;2023-01-29T13:19:44;101667.25;;;3.78;72.77
50550;BME280;36505;52.512;13.460;2023-01-29T13:22:33;101662.00;;;3.77;73.00
50550;BME280;36505;52.512;13.460;2023-01-29T13:25:01;101657.28;;;3.71;73.18
50550;BME280;36505;52.512;13.460;2023-01-29T13:27:29;101681.22;;;3.90;73.34
50550;BME280;36505;52.512;13.460;2023-01-29T13:29:56;101675.47;;;3.93;73.15
50550;BME280;36505;52.512;13.460;2023-01-29T13:32:27;101677.81;;;3.96;72.85
50550;BME280;36505;52.512;13.460;2023-01-29T13:35:03;101675.94;;;3.96;72.46
50550;BME280;36505;52.512;13.460;2023-01-29T13:37:40;101670.34;;;3.98;72.90
50550;BME280;36505;52.512;13.460;2023-01-29T13:40:17;101657.22;;;3.87;72.78
50550;BME280;36505;52.512;13.460;2023-01-29T13:42:47;101659.75;;;3.88;72.48
50550;BME280;36505;52.512;13.460;2023-01-29T13:45:21;101667.63;;;3.98;72.33
50550;BME280;36505;52.512;13.460;2023-01-29T13:47:47;101662.25;;;3.90;72.28
50550;BME280;36505;52.512;13.460;2023-01-29T13:50:29;101669.38;;;3.91;73.05
50550;BME280;36505;52.512;13.460;2023-01-29T13:52:57;101670.94;;;3.85;73.24
50550;BME280;36505;52.512;13.460;2023-01-29T13:55:28;101651.53;;;3.74;73.88
50550;BME280;36505;52.512;13.460;2023-01-29T13:57:56;101666.34;;;3.86;72.84
50550;BME280;36505;52.512;13.460;2023-01-29T14:05:56;101661.16;;;3.76;73.78
50550;BME280;36505;52.512;13.460;2023-01-29T14:13:47;101660.38;;;3.68;74.44
50550;BME280;36505;52.512;13.460;2023-01-29T14:18:52;101640.63;;;3.51;74.74
50550;BME280;36505;52.512;13.460;2023-01-29T14:21:23;101644.72;;;3.47;75.97
50550;BME280;36505;52.512;13.460;2023-01-29T14:23:53;101650.03;;;3.32;76.52
50550;BME280;36505;52.512;13.460;2023-01-29T14:31:56;101655.44;;;3.32;78.12
50550;BME280;36505;52.512;13.460;2023-01-29T14:34:43;101645.09;;;3.36;77.96
50550;BME280;36505;52.512;13.460;2023-01-29T14:37:18;101644.09;;;3.37;78.29
50550;BME280;36505;52.512;13.460;2023-01-29T14:39:47;101639.50;;;3.37;78.34
50550;BME280;36505;52.512;13.460;2023-01-29T14:42:29;101635.13;;;3.36;78.31
50550;BME280;36505;52.512;13.460;2023-01-29T14:45:23;101641.25;;;3.30;78.52
50550;BME280;36505;52.512;13.460;2023-01-29T14:55:40;101623.03;;;3.16;80.16
50550;BME280;36505;52.512;13.460;2023-01-29T15:00:57;101616.13;;;3.13;80.69
50550;BME280;36505;52.512;13.460;2023-01-29T15:05:53;101614.06;;;3.07;81.49
50550;BME280;36505;52.512;13.460;2023-01-29T15:08:25;101612.22;;;3.08;81.47
50550;BME280;36505;52.512;13.460;2023-01-29T15:11:00;101607.47;;;3.10;81.55
50550;BME280;36505;52.512;13.460;2023-01-29T15:13:55;101599.06;;;3.05;81.61